Flight Track Log - Related Links

Times and Time Zones

All times are in EDT time to prevent confusion due to time zone crossing. See the G-VFAB flight status page for this flight to view local times or setup timezone preferences in your user account.

Time Position Orientation Groundspeed Altitude Reporting Facility
EDT Latitude Longitude Course Direction KTS MPH feet Rate Location/Type
Sun 08:05:32 PM 40.6170 -73.7900 207° Southwest 156 180 300  Level FlightAware ADS-B
Sun 08:05:47 PM 40.6070 -73.7970 208° Southwest 160 184 700 1,350 Climbing FlightAware ADS-B
Sun 08:06:12 PM 40.5910 -73.8090 210° Southwest 173 199 1,200 1,029 Climbing FlightAware ADS-B
Sun 08:06:22 PM 40.5840 -73.8110 192° South 183 211 1,300 1,000 Climbing FlightAware ADS-B
Sun 08:06:42 PM 40.5670 -73.7980 150° Southeast 203 234 1,700 1,200 Climbing FlightAware ADS-B
Sun 08:07:07 PM 40.5550 -73.7690 119° Southeast 237 273 2,200 2,073 Climbing FlightAware ADS-B
Sun 08:07:37 PM 40.5380 -73.7270 118° Southeast 256 295 3,600 2,100 Climbing FlightAware ADS-B
Sun 08:08:07 PM 40.5210 -73.6860 119° Southeast 255 293 4,300 873 Climbing FlightAware ADS-B
Sun 08:08:32 PM 40.5070 -73.6540 120° Southeast 253 291 4,400 150 Climbing FlightAware ADS-B
Sun 08:08:47 PM 40.4980 -73.6320 118° Southeast 253 291 4,400  Level FlightAware ADS-B
Sun 08:09:07 PM 40.4870 -73.6070 120° Southeast 254 292 4,400  Level FlightAware ADS-B
Sun 08:09:32 PM 40.4770 -73.5710 110° East 247 284 4,400  Level FlightAware ADS-B
Sun 08:09:57 PM 40.4770 -73.5320 90° East 246 283 4,400 327 Level FlightAware ADS-B
Sun 08:10:27 PM 40.4770 -73.4870 90° East 250 288 4,700 1,263 Climbing FlightAware ADS-B
Sun 08:10:35 PM 40.4773 -73.4735 88° East 250 288 5,200 3,556 Climbing FlightAware ADS-B
Sun 08:10:54 PM 40.4783 -73.4442 87° East 255 293 6,300 3,353 Climbing FlightAware ADS-B
Sun 08:11:09 PM 40.4796 -73.4208 86° East 259 298 7,100 3,000 Climbing FlightAware ADS-B
Sun 08:11:20 PM 40.4821 -73.4038 79° East 261 300 7,600 3,000 Climbing FlightAware ADS-B
Sun 08:11:37 PM 40.4866 -73.3773 77° East 265 305 8,500 3,000 Climbing FlightAware ADS-B
Sun 08:11:52 PM 40.4910 -73.3534 76° East 271 312 9,200 2,195 Climbing FlightAware ADS-B
Sun 08:12:18 PM 40.4998 -73.3087 75° East 292 336 10,000 1,342 Climbing FlightAware ADS-B
Sun 08:13:08 PM 40.5197 -73.2111 75° East 292 336 10,900 1,630 Climbing FlightAware ADS-B
Sun 08:13:39 PM 40.5330 -73.1463 75° East 373 429 12,200 2,438 Climbing FlightAware ADS-B
Sun 08:14:12 PM 40.5470 -73.0750 75° East 385 443 13,500 2,384 Climbing FlightAware ADS-B
Sun 08:14:52 PM 40.5660 -72.9880 74° East 397 457 15,100 2,400 Climbing FlightAware ADS-B
Sun 08:15:32 PM 40.5890 -72.8940 72° East 408 470 16,700 2,329 Climbing FlightAware ADS-B
Sun 08:16:17 PM 40.6170 -72.7880 71° East 423 487 18,400 2,118 Climbing FlightAware ADS-B
Sun 08:16:57 PM 40.6430 -72.6870 71° East 441 507 19,700 1,906 Climbing FlightAware ADS-B
Sun 08:17:42 PM 40.6720 -72.5700 72° East 461 531 21,100 1,906 Climbing FlightAware ADS-B
Sun 08:18:22 PM 40.7000 -72.4640 71° East 476 548 22,400 2,100 Climbing FlightAware ADS-B
Sun 08:19:02 PM 40.7300 -72.3410 72° East 490 564 23,900 2,025 Climbing FlightAware ADS-B
Sun 08:19:42 PM 40.7580 -72.2310 71° East 501 577 25,100 1,976 Climbing FlightAware ADS-B
Sun 08:20:27 PM 40.7920 -72.0930 72° East 514 592 26,700 1,976 Climbing FlightAware ADS-B
Sun 08:21:07 PM 40.8210 -71.9750 72° East 525 604 27,900 1,694 Climbing FlightAware ADS-B
Sun 08:21:52 PM 40.8550 -71.8390 72° East 540 621 29,100 1,553 Climbing FlightAware ADS-B
Sun 08:22:32 PM 40.8870 -71.7090 72° East 554 638 30,100 1,667 Climbing FlightAware ADS-B
Sun 08:23:22 PM 40.9130 -71.6020 72° East 559 643 31,600 1,895 Climbing FlightAware ADS-B
Sun 08:24:07 PM 40.9480 -71.4550 72° East 561 646 33,100 1,867 Climbing FlightAware ADS-B
Sun 08:24:52 PM 40.9950 -71.2620 72° East 561 646 34,400 1,533 Climbing FlightAware ADS-B
Sun 08:25:37 PM 41.0300 -71.1140 73° East 565 650 35,400 1,129 Climbing FlightAware ADS-B
Sun 08:26:17 PM 41.0610 -70.9840 72° East 565 650 36,000 450 Climbing FlightAware ADS-B
Sun 08:26:57 PM 41.0980 -70.8550 69° East 566 651 36,000  Level FlightAware ADS-B
Sun 08:27:42 PM 41.1600 -70.7230 58° Northeast 558 642 36,000  Level FlightAware ADS-B
Sun 08:28:22 PM 41.2250 -70.6290 47° Northeast 550 633 36,000  Level FlightAware ADS-B
Sun 08:29:07 PM 41.3050 -70.5200 46° Northeast 549 632 36,000  Level FlightAware ADS-B
Sun 08:29:47 PM 41.3840 -70.4160 45° Northeast 553 636 36,000  Level FlightAware ADS-B
Sun 08:30:27 PM 41.4570 -70.3170 45° Northeast 553 636 36,000  Level FlightAware ADS-B
Sun 08:31:12 PM 41.5350 -70.2090 46° Northeast 554 638 36,000  Level FlightAware ADS-B
Sun 08:31:52 PM 41.6020 -70.1060 49° Northeast 549 632 36,000  Level FlightAware ADS-B
Sun 08:32:37 PM 41.6800 -69.9870 49° Northeast 549 632 36,000  Level FlightAware ADS-B
Sun 08:33:17 PM 41.7420 -69.8940 48° Northeast 554 638 36,000  Level FlightAware ADS-B
Sun 08:34:12 PM 41.8420 -69.7430 48° Northeast 554 638 36,000  Level FlightAware ADS-B
Sun 08:34:57 PM 41.9180 -69.6270 49° Northeast 548 631 36,000  Level FlightAware ADS-B
Sun 08:35:27 PM 41.9640 -69.5570 49° Northeast 548 631 36,000  Level FlightAware ADS-B
Sun 08:36:22 PM 42.0620 -69.4070 49° Northeast 548 631 36,000  Level FlightAware ADS-B
Sun 08:36:57 PM 42.1200 -69.3170 49° Northeast 547 629 36,000  Level FlightAware ADS-B
Sun 08:37:42 PM 42.1920 -69.2070 49° Northeast 548 631 36,000  Level FlightAware ADS-B
Sun 08:38:22 PM 42.2630 -69.0980 49° Northeast 549 632 36,000  Level FlightAware ADS-B
Sun 08:39:02 PM 42.3270 -68.9970 49° Northeast 549 632 36,000  Level FlightAware ADS-B
Sun 08:39:42 PM 42.3990 -68.8830 49° Northeast 550 633 36,000  Level FlightAware ADS-B
Sun 08:40:32 PM 42.4770 -68.7620 49° Northeast 549 632 36,000  Level FlightAware ADS-B
Sun 08:41:22 PM 42.5670 -68.6200 49° Northeast 548 631 36,000  Level FlightAware ADS-B
Sun 08:42:07 PM 42.6390 -68.5070 49° Northeast 547 629 36,000  Level FlightAware ADS-B
Sun 08:42:52 PM 42.7140 -68.3890 49° Northeast 551 634 36,000  Level FlightAware ADS-B
Sun 08:44:30 PM 42.8480 -68.1680 50° Northeast 547 629 36,000  Level FlightAware ADS-B
Sun 08:45:10 PM 42.9040 -68.0790 49° Northeast 547 629 36,000  Level FlightAware ADS-B
Sun 08:45:50 PM 42.9590 -67.9890 50° Northeast 547 629 36,000  Level FlightAware ADS-B
Sun 08:46:35 PM 43.0900 -67.7830 49° Northeast 557 641 36,000  Level FlightAware ADS-B
Sun 08:47:30 PM 43.1800 -67.6370 50° Northeast 554 638 36,000  Level FlightAware ADS-B
Sun 08:48:05 PM 43.2400 -67.5390 50° Northeast 558 642 36,000  Level FlightAware ADS-B
Sun 08:48:55 PM 43.3220 -67.4030 50° Northeast 558 642 36,000  Level FlightAware ADS-B
Sun 08:49:50 PM 43.4120 -67.2560 50° Northeast 558 642 36,000  Level FlightAware ADS-B
Sun 08:50:30 PM 43.4770 -67.1490 50° Northeast 559 643 36,000  Level FlightAware ADS-B
Sun 08:51:15 PM 43.5510 -67.0260 50° Northeast 560 644 36,000  Level FlightAware ADS-B
Sun 08:52:25 PM 43.6710 -66.8330 49° Northeast 562 647 36,000  Level FlightAware ADS-B
Sun 08:53:35 PM 43.7900 -66.6420 49° Northeast 563 648 36,000  Level FlightAware ADS-B
Sun 08:54:10 PM 43.8500 -66.5440 50° Northeast 563 648 36,000  Level FlightAware ADS-B
Sun 08:55:00 PM 43.9360 -66.4070 49° Northeast 565 650 36,000  Level FlightAware ADS-B
Sun 08:56:50 PM 44.1140 -66.1160 50° Northeast 567 652 36,000  Level FlightAware ADS-B
Sun 08:58:00 PM 44.2310 -65.9240 50° Northeast 562 647 36,000  Level FlightAware ADS-B
Sun 08:59:10 PM 44.3530 -65.7220 50° Northeast 563 648 36,000  Level FlightAware ADS-B
Sun 09:00:10 PM 44.4590 -65.5450 50° Northeast 567 652 36,000  Level FlightAware ADS-B
Sun 09:00:50 PM 44.5290 -65.4300 49° Northeast 567 652 36,000  Level FlightAware ADS-B
Sun 09:01:30 PM 44.5940 -65.3190 51° Northeast 567 652 36,000  Level FlightAware ADS-B
Sun 09:02:15 PM 44.6720 -65.1890 50° Northeast 566 651 36,000  Level FlightAware ADS-B
Sun 09:02:55 PM 44.7390 -65.0760 50° Northeast 565 650 36,000  Level FlightAware ADS-B
Sun 09:03:35 PM 44.8050 -64.9630 51° Northeast 564 649 36,000  Level FlightAware ADS-B
Sun 09:04:20 PM 44.8770 -64.8410 50° Northeast 565 650 36,000  Level FlightAware ADS-B
Sun 09:05:00 PM 44.9450 -64.7240 51° Northeast 566 651 36,000  Level FlightAware ADS-B
Sun 09:05:45 PM 45.0200 -64.5960 50° Northeast 566 651 36,000  Level FlightAware ADS-B
Sun 09:06:25 PM 45.0870 -64.4790 51° Northeast 566 651 36,000  Level FlightAware ADS-B
Sun 09:07:05 PM 45.1530 -64.3640 51° Northeast 565 650 36,000  Level FlightAware ADS-B
Sun 09:07:50 PM 45.2270 -64.2340 51° Northeast 565 650 36,000  Level FlightAware ADS-B
Sun 09:08:45 PM 45.3090 -64.0900 51° Northeast 565 650 36,000  Level FlightAware ADS-B
Sun 09:09:25 PM 45.3640 -63.9920 51° Northeast 565 650 36,000  Level FlightAware ADS-B
Sun 09:09:55 PM 45.4060 -63.9180 51° Northeast 565 650 36,000  Level FlightAware ADS-B
Sun 09:10:45 PM 45.4760 -63.7950 51° Northeast 565 650 36,000  Level FlightAware ADS-B
Sun 09:11:25 PM 45.5320 -63.6970 51° Northeast 565 650 36,000  Level FlightAware ADS-B
Sun 09:12:05 PM 45.5880 -63.5980 51° Northeast 565 650 36,000  Level FlightAware ADS-B
Sun 09:12:45 PM 45.6440 -63.4990 51° Northeast 565 650 36,000  Level FlightAware ADS-B
Sun 09:13:25 PM 45.7000 -63.4010 51° Northeast 565 650 36,000  Level FlightAware ADS-B
Sun 09:14:15 PM 45.7700 -63.2770 51° Northeast 565 650 36,000  Level FlightAware ADS-B
Sun 09:14:55 PM 45.8260 -63.1780 51° Northeast 565 650 36,000  Level FlightAware ADS-B
Sun 09:15:35 PM 45.8820 -63.0790 51° Northeast 565 650 36,000  Level FlightAware ADS-B
Sun 09:16:15 PM 45.9380 -62.9790 51° Northeast 565 650 36,000  Level FlightAware ADS-B
Sun 09:17:00 PM 46.1210 -62.6280 53° Northeast 565 650 36,000  Level FlightAware ADS-B
Sun 09:17:45 PM 46.1950 -62.4910 52° Northeast 566 651 36,000  Level FlightAware ADS-B
Sun 09:18:25 PM 46.2580 -62.3710 53° Northeast 565 650 36,000  Level FlightAware ADS-B
Sun 09:19:10 PM 46.3280 -62.2400 52° Northeast 566 651 36,000  Level FlightAware ADS-B
Sun 09:19:50 PM 46.3920 -62.1200 52° Northeast 565 650 36,000  Level FlightAware ADS-B
Sun 09:20:30 PM 46.4560 -62.0000 52° Northeast 565 650 36,000  Level FlightAware ADS-B
Sun 09:21:15 PM 46.5290 -61.8610 53° Northeast 565 650 36,000  Level FlightAware ADS-B
Sun 09:21:55 PM 46.5920 -61.7410 53° Northeast 563 648 36,000  Level FlightAware ADS-B
Sun 09:22:40 PM 46.6600 -61.6110 53° Northeast 563 648 36,000  Level FlightAware ADS-B
Sun 09:23:20 PM 46.7240 -61.4870 53° Northeast 563 648 36,000  Level FlightAware ADS-B
Sun 09:24:00 PM 46.7870 -61.3660 53° Northeast 563 648 36,000  Level FlightAware ADS-B
Sun 09:24:45 PM 46.8600 -61.2260 53° Northeast 565 650 36,000  Level FlightAware ADS-B
Sun 09:25:25 PM 46.9210 -61.1040 54° Northeast 566 651 36,000  Level FlightAware ADS-B
Sun 09:26:05 PM 46.9830 -60.9840 53° Northeast 567 652 36,000  Level FlightAware ADS-B
Sun 09:26:50 PM 47.0540 -60.8450 53° Northeast 567 652 36,000  Level FlightAware ADS-B
Sun 09:27:25 PM 47.1080 -60.7370 54° Northeast 565 650 36,000  Level FlightAware ADS-B
Sun 09:28:05 PM 47.1690 -60.6140 54° Northeast 564 649 36,000  Level FlightAware ADS-B
Sun 09:28:55 PM 47.2480 -60.4600 53° Northeast 563 648 36,000  Level FlightAware ADS-B
Sun 09:29:35 PM 47.3080 -60.3370 54° Northeast 563 648 36,000  Level FlightAware ADS-B
Sun 09:30:20 PM 47.3740 -60.2030 54° Northeast 563 648 36,000  Level FlightAware ADS-B
Sun 09:30:55 PM 47.4300 -60.0920 53° Northeast 562 647 36,000  Level FlightAware ADS-B
Sun 09:31:40 PM 47.4960 -59.9580 54° Northeast 562 647 36,000  Level FlightAware ADS-B
Sun 09:32:20 PM 47.5480 -59.8520 54° Northeast 562 647 36,000  Level FlightAware ADS-B
Sun 09:33:10 PM 47.6130 -59.7200 54° Northeast 562 647 36,000  Level FlightAware ADS-B
Sun 09:33:50 PM 47.6650 -59.6140 54° Northeast 562 647 36,000  Level FlightAware ADS-B
Sun 09:34:30 PM 47.7170 -59.5070 54° Northeast 562 647 36,000  Level FlightAware ADS-B
Sun 09:35:10 PM 47.7690 -59.4010 54° Northeast 562 647 36,000  Level FlightAware ADS-B
Sun 09:35:50 PM 47.8200 -59.2940 55° Northeast 562 647 36,000  Level FlightAware ADS-B
Sun 09:36:40 PM 47.8850 -59.1610 54° Northeast 562 647 36,000  Level FlightAware ADS-B
Sun 09:37:20 PM 47.9370 -59.0540 54° Northeast 562 647 36,000  Level FlightAware ADS-B
Sun 09:38:00 PM 47.9890 -58.9480 54° Northeast 562 647 36,000  Level FlightAware ADS-B
Sun 09:38:40 PM 48.0410 -58.8410 54° Northeast 562 647 36,000  Level FlightAware ADS-B
Sun 09:39:20 PM 48.0930 -58.7340 54° Northeast 562 647 36,000  Level FlightAware ADS-B
Sun 09:40:10 PM 48.1580 -58.6000 54° Northeast 562 647 36,000  Level FlightAware ADS-B
Sun 09:40:50 PM 48.2100 -58.4930 54° Northeast 562 647 36,000  Level FlightAware ADS-B
Sun 09:45:30 PM 48.7050 -57.2770 58° Northeast 568 654 36,000  Level FlightAware ADS-B
Sun 09:46:10 PM 48.7540 -57.1440 61° Northeast 568 654 36,000  Level FlightAware ADS-B
Sun 09:47:10 PM 48.8320 -56.9290 61° Northeast 570 656 36,000  Level FlightAware ADS-B
Sun 09:47:50 PM 48.8750 -56.8090 61° Northeast 570 656 36,000  Level FlightAware ADS-B
Sun 09:48:30 PM 48.9180 -56.6900 61° Northeast 570 656 36,000  Level FlightAware ADS-B
Sun 09:49:10 PM 48.9620 -56.5710 61° Northeast 570 656 36,000  Level FlightAware ADS-B
Sun 09:49:50 PM 49.0350 -56.3600 62° Northeast 574 661 36,000  Level FlightAware ADS-B
Sun 09:50:40 PM 49.0990 -56.1780 62° Northeast 571 657 36,000  Level FlightAware ADS-B
Sun 09:51:20 PM 49.1490 -56.0320 62° Northeast 572 658 36,000  Level FlightAware ADS-B
Sun 09:52:00 PM 49.1910 -55.9160 61° Northeast 572 658 36,000  Level FlightAware ADS-B
Sun 09:52:40 PM 49.2330 -55.7940 62° Northeast 572 658 36,000  Level FlightAware ADS-B
Sun 09:53:20 PM 49.2750 -55.6720 62° Northeast 572 658 36,000  Level FlightAware ADS-B
Sun 09:54:10 PM 49.3280 -55.5200 62° Northeast 572 658 36,000  Level FlightAware ADS-B
Sun 09:54:50 PM 49.3700 -55.3980 62° Northeast 572 658 36,000 1,765 Level FlightAware ADS-B
Sun 09:55:35 PM 49.4660 -55.1050 63° Northeast 575 662 38,500 2,118 Climbing FlightAware ADS-B
Sun 09:56:15 PM 49.5150 -54.9590 63° Northeast 577 664 39,000 375 Climbing FlightAware ADS-B
Sun 09:56:55 PM 49.5650 -54.8080 63° Northeast 580 667 39,000  Level FlightAware ADS-B
Sun 09:57:40 PM 49.6180 -54.6480 63° Northeast 584 672 39,000  Level FlightAware ADS-B
Sun 09:58:20 PM 49.6670 -54.4960 63° Northeast 583 671 39,000  Level FlightAware ADS-B
Sun 09:59:00 PM 49.7120 -54.3580 63° Northeast 583 671 39,000  Level FlightAware ADS-B
Sun 09:59:40 PM 49.7600 -54.2090 63° Northeast 582 670 39,000  Level FlightAware ADS-B
Sun 10:00:25 PM 49.8170 -54.0300 64° Northeast 582 670 39,000  Level FlightAware ADS-B
Sun 10:01:25 PM 49.8850 -53.8170 64° Northeast 582 670 39,000  Level FlightAware ADS-B
Sun 10:02:05 PM 49.9320 -53.6680 64° Northeast 575 662 39,000  Level FlightAware ADS-B
Sun 10:02:45 PM 49.9790 -53.5190 64° Northeast 573 659 39,000  Level FlightAware ADS-B
Sun 10:03:25 PM 50.0250 -53.3700 64° Northeast 571 657 39,000  Level FlightAware ADS-B
Sun 10:04:10 PM 50.0810 -53.1880 64° Northeast 572 658 39,000  Level FlightAware ADS-B
Sun 10:04:50 PM 50.1210 -53.0600 64° Northeast 572 658 39,000  Level FlightAware ADS-B
Sun 10:05:35 PM 50.1760 -52.8750 65° Northeast 573 659 39,000  Level FlightAware ADS-B
Sun 10:06:15 PM 50.2200 -52.7340 64° Northeast 575 662 39,000  Level FlightAware ADS-B
Sun 10:06:55 PM 50.2620 -52.5960 64° Northeast 575 662 39,000  Level FlightAware ADS-B
Sun 10:07:40 PM 50.3150 -52.4160 65° Northeast 39,000  Level FlightAware ADS-B
Sun 10:08:20 PM 50.3600 -52.2630 65° Northeast 584 672 39,000  Level FlightAware ADS-B
Sun 10:09:05 PM 50.4080 -52.1030 65° Northeast 584 672 39,000  Level FlightAware ADS-B
Sun 10:09:45 PM 50.4470 -51.9730 65° Northeast 584 672 39,000  Level FlightAware ADS-B
Sun 10:10:25 PM 50.4850 -51.8420 65° Northeast 584 672 39,000  Level FlightAware ADS-B
Sun 10:11:05 PM 50.5240 -51.7110 65° Northeast 584 672 39,000  Level FlightAware ADS-B
Sun 10:11:45 PM 50.5630 -51.5800 65° Northeast 584 672 39,000  Level FlightAware ADS-B
Sun 10:12:35 PM 50.6110 -51.4160 65° Northeast 584 672 39,000  Level FlightAware ADS-B
Sun 10:13:15 PM 50.6500 -51.2850 65° Northeast 584 672 39,000  Level FlightAware ADS-B
Sun 10:13:55 PM 50.6890 -51.1530 65° Northeast 584 672 39,000  Level FlightAware ADS-B
Sun 10:14:35 PM 50.7280 -51.0220 65° Northeast 584 672 39,000  Level FlightAware ADS-B
Sun 10:15:25 PM 50.7760 -50.8570 65° Northeast 584 672 39,000  Level FlightAware ADS-B
Sun 10:16:05 PM 50.8150 -50.7260 65° Northeast 584 672 39,000  Level FlightAware ADS-B
Sun 10:16:45 PM 50.8540 -50.5940 65° Northeast 584 672 39,000  Level FlightAware ADS-B
Sun 10:17:25 PM 50.8930 -50.4620 65° Northeast 584 672 39,000  Level FlightAware ADS-B
Sun 10:18:05 PM 50.9320 -50.3300 65° Northeast 584 672 39,000  Level FlightAware ADS-B
Sun 10:18:23 PM 50.9833 -49.8333 65° Northeast 590 679 39,000  Level Gander Center
Sun 10:19:23 PM 51.0333 -49.6000 71° East 590 679 39,000  Level Gander Center
Sun 10:20:23 PM 51.1000 -49.3500 67° East 590 679 39,000  Level Gander Center
Sun 10:21:23 PM 51.1500 -49.1167 71° East 590 679 39,000  Level Gander Center
Sun 10:22:23 PM 51.2167 -48.8500 68° East 590 679 39,000 -4,066 Level Gander Center
Sun 10:24:00 PM 51.3151 -48.5006 66° East  Level FlightAware Approximate
Sun 10:31:00 PM 51.7064 -46.9526 70° East  Level FlightAware Approximate
Sun 10:31:00 PM 51.5100 -47.8060 77° East -1  Level FlightAware Direct Aircraft Datalink
Sun 10:32:00 PM 51.7554 -46.7267 71° East  Level FlightAware Approximate
Sun 10:33:00 PM 51.8040 -46.5002 71° East  Level FlightAware Approximate
Sun 10:34:00 PM 51.8522 -46.2733 71° East  Level FlightAware Approximate
Sun 10:35:00 PM 51.8999 -46.0458 71° East  Level FlightAware Approximate
Sun 10:36:00 PM 51.9472 -45.8179 71° East  Level FlightAware Approximate
Sun 10:37:00 PM 51.9940 -45.5895 71° East  Level FlightAware Approximate
Sun 10:38:00 PM 52.0405 -45.3606 72° East  Level FlightAware Approximate
Sun 10:39:00 PM 52.0864 -45.1313 72° East  Level FlightAware Approximate
Sun 10:40:00 PM 52.1319 -44.9015 72° East  Level FlightAware Approximate
Sun 10:41:00 PM 52.1770 -44.6712 72° East  Level FlightAware Approximate
Sun 10:42:00 PM 52.2216 -44.4405 72° East  Level FlightAware Approximate
Sun 10:43:00 PM 52.2658 -44.2093 73° East  Level FlightAware Approximate
Sun 10:44:00 PM 52.3095 -43.9776 73° East  Level FlightAware Approximate
Sun 10:45:00 PM 52.3529 -43.7456 73° East  Level FlightAware Approximate
Sun 10:46:00 PM 52.3961 -43.5132 73° East  Level FlightAware Approximate
Sun 10:47:00 PM 52.4389 -43.2804 73° East  Level FlightAware Approximate
Sun 10:48:00 PM 52.4812 -43.0471 73° East  Level FlightAware Approximate
Sun 10:49:00 PM 52.5231 -42.8134 74° East  Level FlightAware Approximate
Sun 10:50:00 PM 52.5645 -42.5793 74° East  Level FlightAware Approximate
Sun 10:51:00 PM 52.6066 -42.3452 73° East  Level FlightAware Approximate
Sun 10:52:00 PM 52.6483 -42.1108 74° East  Level FlightAware Approximate
Sun 10:53:00 PM 52.6896 -41.8759 74° East  Level FlightAware Approximate
Sun 10:54:00 PM 52.7304 -41.6406 74° East  Level FlightAware Approximate
Sun 10:55:00 PM 52.7707 -41.4048 74° East  Level FlightAware Approximate
Sun 10:56:00 PM 52.8106 -41.1686 74° East  Level FlightAware Approximate
Sun 10:57:00 PM 52.8500 -40.9320 74° East  Level FlightAware Approximate
Sun 10:58:00 PM 52.8890 -40.6950 75° East  Level FlightAware Approximate
Sun 10:59:00 PM 52.9274 -40.4575 75° East  Level FlightAware Approximate
Sun 11:00:00 PM 52.9654 -40.2196 75° East  Level FlightAware Approximate
Sun 11:01:00 PM 53.0027 -39.9812 77° East  Level FlightAware Approximate
Sun 11:02:00 PM 53.0367 -39.7412 77° East  Level FlightAware Approximate
Sun 11:03:00 PM 53.0703 -39.5009 77° East  Level FlightAware Approximate
Sun 11:04:00 PM 53.1033 -39.2602 77° East  Level FlightAware Approximate
Sun 11:04:33 PM 52.8664 -39.9930 71° East  Level Estimated
Sun 11:07:00 PM 52.9448 -39.4048 77° East  Level Estimated
Sun 11:08:00 PM 52.9760 -39.1641 78° East  Level Estimated
Sun 11:09:00 PM 53.0067 -38.9231 78° East  Level Estimated
Sun 11:10:00 PM 53.0369 -38.6817 78° East  Level Estimated
Sun 11:11:00 PM 53.0666 -38.4400 78° East  Level Estimated
Sun 11:12:00 PM 53.0958 -38.1980 79° East  Level Estimated
Sun 11:13:00 PM 53.1245 -37.9556 79° East  Level Estimated
Sun 11:14:00 PM 53.1527 -37.7129 79° East  Level Estimated
Sun 11:15:00 PM 53.1805 -37.4699 79° East  Level Estimated
Sun 11:16:00 PM 53.2077 -37.2266 79° East  Level Estimated
Sun 11:17:00 PM 53.2345 -36.9830 80° East  Level Estimated
Sun 11:18:00 PM 53.2607 -36.7390 80° East  Level Estimated
Sun 11:19:00 PM 53.2865 -36.4948 80° East  Level Estimated
Sun 11:20:00 PM 53.3117 -36.2503 80° East  Level Estimated
Sun 11:21:00 PM 53.3365 -36.0055 80° East  Level Estimated
Sun 11:22:00 PM 53.3607 -35.7604 80° East  Level Estimated
Sun 11:23:00 PM 53.3845 -35.5151 81° East  Level Estimated
Sun 11:24:00 PM 53.4077 -35.2694 81° East  Level Estimated
Sun 11:25:00 PM 53.4305 -35.0235 81° East  Level Estimated
Sun 11:26:00 PM 53.4527 -34.7774 81° East  Level Estimated
Sun 11:27:00 PM 53.4744 -34.5310 81° East  Level Estimated
Sun 11:28:00 PM 53.4956 -34.2843 82° East  Level Estimated
Sun 11:29:00 PM 53.5163 -34.0374 82° East  Level Estimated
Sun 11:30:00 PM 53.5365 -33.7903 82° East  Level Estimated
Sun 11:31:00 PM 53.5562 -33.5429 82° East  Level Estimated
Sun 11:32:00 PM 53.5754 -33.2953 82° East  Level Estimated
Sun 11:33:00 PM 53.5941 -33.0475 83° East  Level Estimated
Sun 11:34:00 PM 53.6123 -32.7994 83° East  Level Estimated
Sun 11:35:00 PM 53.6299 -32.5512 83° East  Level Estimated
Sun 11:36:00 PM 53.6470 -32.3027 83° East  Level Estimated
Sun 11:37:00 PM 53.6636 -32.0541 83° East  Level Estimated
Sun 11:38:00 PM 53.6797 -31.8052 84° East  Level Estimated
Sun 11:39:00 PM 53.6953 -31.5562 84° East  Level Estimated
Sun 11:40:00 PM 53.7104 -31.3069 84° East  Level Estimated
Sun 11:41:00 PM 53.7249 -31.0576 84° East  Level Estimated
Sun 11:42:00 PM 53.7390 -30.8080 84° East  Level Estimated
Sun 11:43:00 PM 53.7525 -30.5583 85° East  Level Estimated
Sun 11:44:00 PM 53.7655 -30.3084 85° East  Level Estimated
Sun 11:45:00 PM 53.7779 -30.0584 85° East  Level Estimated
Sun 11:46:00 PM 53.7899 -29.8082 85° East  Level Estimated
Sun 11:47:00 PM 53.8013 -29.5579 85° East  Level Estimated
Sun 11:48:00 PM 53.8122 -29.3074 86° East  Level Estimated
Sun 11:49:00 PM 53.8226 -29.0568 86° East  Level Estimated
Sun 11:50:00 PM 53.8325 -28.8061 86° East  Level Estimated
Sun 11:51:00 PM 53.8418 -28.5553 86° East  Level Estimated
Sun 11:52:00 PM 53.8507 -28.3044 86° East  Level Estimated
Sun 11:53:00 PM 53.8590 -28.0534 87° East  Level Estimated
Sun 11:54:00 PM 53.8667 -27.8022 87° East  Level Estimated
Sun 11:55:00 PM 53.8740 -27.5510 87° East  Level Estimated
Sun 11:56:00 PM 53.8807 -27.2997 87° East  Level Estimated
Sun 11:57:00 PM 53.8869 -27.0483 88° East  Level Estimated
Sun 11:57:00 PM 54.6530 -24.3750 94° East -1  Level FlightAware Direct Aircraft Datalink
Sun 11:58:00 PM 53.8926 -26.7969 88° East  Level Estimated
Sun 11:59:00 PM 53.8977 -26.5454 88° East  Level Estimated
Mon 12:00:00 AM 53.9023 -26.2938 88° East  Level Estimated
Mon 12:01:00 AM 53.9064 -26.0422 88° East  Level Estimated
Mon 12:02:00 AM 53.9100 -25.7905 89° East  Level Estimated
Mon 12:03:00 AM 53.9130 -25.5388 89° East  Level Estimated
Mon 12:04:00 AM 53.9156 -25.2871 89° East  Level Estimated
Mon 12:05:00 AM 53.9175 -25.0353 89° East  Level Estimated
Mon 12:06:00 AM 53.9190 -24.7835 89° East  Level Estimated
Mon 12:07:00 AM 53.9199 -24.5317 90° East  Level Estimated
Mon 12:08:00 AM 53.9204 -24.2799 90° East  Level Estimated
Mon 12:09:00 AM 53.9202 -24.0281 90° East  Level Estimated
Mon 12:10:00 AM 53.9196 -23.7763 90° East  Level Estimated
Mon 12:11:00 AM 53.9184 -23.5245 90° East  Level Estimated
Mon 12:12:00 AM 53.9167 -23.2727 91° East  Level Estimated
Mon 12:13:00 AM 53.9145 -23.0209 91° East  Level Estimated
Mon 12:14:00 AM 53.9118 -22.7692 91° East  Level Estimated
Mon 12:15:00 AM 53.9085 -22.5175 91° East  Level Estimated
Mon 12:16:00 AM 53.9047 -22.2659 91° East  Level Estimated
Mon 12:17:00 AM 53.9003 -22.0142 92° East  Level Estimated
Mon 12:18:00 AM 53.8955 -21.7627 92° East  Level Estimated
Mon 12:19:00 AM 53.8901 -21.5112 92° East  Level Estimated
Mon 12:20:00 AM 53.8842 -21.2598 92° East  Level Estimated
Mon 12:21:00 AM 53.8778 -21.0085 92° East  Level Estimated
Mon 12:22:00 AM 53.8708 -20.7572 93° East  Level Estimated
Mon 12:23:00 AM 53.8633 -20.5060 93° East  Level Estimated
Mon 12:24:00 AM 53.8553 -20.2549 93° East  Level Estimated
Mon 12:25:00 AM 53.8468 -20.0040 93° East  Level Estimated
Mon 12:26:00 AM 53.8378 -19.7531 93° East  Level Estimated
Mon 12:27:00 AM 53.8282 -19.5023 94° East  Level Estimated
Mon 12:27:21 AM 54.8035 -16.6127 97° East  Level FlightAware Approximate
Mon 12:29:00 AM 54.7716 -16.1920 97° East  Level FlightAware Approximate
Mon 12:30:00 AM 54.7516 -15.9373 98° East  Level FlightAware Approximate
Mon 12:31:00 AM 54.7315 -15.6828 98° East  Level FlightAware Approximate
Mon 12:32:00 AM 54.7109 -15.4285 98° East  Level FlightAware Approximate
Mon 12:33:00 AM 54.6897 -15.1745 98° East  Level FlightAware Approximate
Mon 12:34:00 AM 54.6680 -14.9207 98° East  Level FlightAware Approximate
Mon 12:35:00 AM 54.6458 -14.6673 99° East  Level FlightAware Approximate
Mon 12:36:00 AM 54.6230 -14.4141 99° East  Level FlightAware Approximate
Mon 12:36:05 AM 54.8700 -13.7390 99° East 570 656 39,000  Level FlightAware ADS-B
Mon 12:36:55 AM 54.8410 -13.5250 103° East 572 658 39,000  Level FlightAware ADS-B
Mon 12:37:00 AM 54.5997 -14.1612 99° East  Level FlightAware Approximate
Mon 12:37:45 AM 54.8110 -13.3010 103° East 569 655 39,000  Level FlightAware ADS-B
Mon 12:38:25 AM 54.7870 -13.1200 103° East 567 652 39,000  Level FlightAware ADS-B
Mon 12:39:05 AM 54.7630 -12.9390 103° East 565 650 39,000  Level FlightAware ADS-B
Mon 12:39:50 AM 54.7360 -12.7410 103° East 565 650 39,000  Level FlightAware ADS-B
Mon 12:40:30 AM 54.7110 -12.5620 104° East 563 648 39,000  Level FlightAware ADS-B
Mon 12:41:10 AM 54.6870 -12.3960 104° East 563 648 39,000  Level FlightAware ADS-B
Mon 12:41:55 AM 54.6610 -12.2090 103° East 560 644 39,000  Level FlightAware ADS-B
Mon 12:42:35 AM 54.6340 -12.0220 104° East 560 644 39,000  Level FlightAware ADS-B
Mon 12:43:20 AM 54.6050 -11.8270 104° East 561 646 39,000  Level FlightAware ADS-B
Mon 12:44:00 AM 54.5790 -11.6490 104° East 562 647 39,000  Level FlightAware ADS-B
Mon 12:44:40 AM 54.5530 -11.4800 105° East 562 647 39,000  Level FlightAware ADS-B
Mon 12:45:15 AM 54.5290 -11.3240 105° East 561 646 39,000  Level FlightAware ADS-B
Mon 12:46:20 AM 54.4890 -11.0560 104° East 563 648 39,000  Level FlightAware ADS-B
Mon 12:47:05 AM 54.4570 -10.8530 105° East 562 647 39,000  Level FlightAware ADS-B
Mon 12:47:45 AM 54.4300 -10.6810 105° East 561 646 39,000  Level FlightAware ADS-B
Mon 12:48:25 AM 54.4020 -10.5050 105° East 561 646 39,000  Level FlightAware ADS-B
Mon 12:49:10 AM 54.3700 -10.3090 106° East 561 646 39,000  Level FlightAware ADS-B
Mon 12:49:50 AM 54.3430 -10.1380 105° East 560 644 39,000  Level FlightAware ADS-B
Mon 12:50:35 AM 54.3110 -9.9460 106° East 557 641 39,000  Level FlightAware ADS-B
Mon 12:51:15 AM 54.2840 -9.7800 106° East 558 642 39,000  Level FlightAware ADS-B
Mon 12:51:55 AM 54.2540 -9.6010 106° East 558 642 39,000  Level FlightAware ADS-B
Mon 12:52:40 AM 54.2210 -9.4100 106° East 557 641 39,000  Level FlightAware ADS-B
Mon 12:53:20 AM 54.1930 -9.2410 106° East 558 642 39,000  Level FlightAware ADS-B
Mon 12:54:05 AM 54.1600 -9.0510 106° East 560 644 39,000 -1,406 Level FlightAware ADS-B
Mon 12:54:24 AM 54.1445 -8.9609 106° East 476 548 37,500 -2,432 Descending FlightAware UK
Mon 12:54:42 AM 54.1312 -8.8847 107° East 476 548 37,500 4,286 Level FlightAware UK
Mon 12:54:45 AM 54.1310 -8.8820 107° East 559 643 39,000  Climbing FlightAware ADS-B
Mon 12:55:00 AM 54.1177 -8.8088 107° East 476 548 37,500 -2,727 Descending FlightAware UK
Mon 12:55:18 AM 54.1041 -8.7326 107° East 476 548 37,500 3,600 Level FlightAware UK
Mon 12:55:25 AM 54.1010 -8.7140 107° East 558 642 39,000  Climbing FlightAware ADS-B
Mon 12:55:42 AM 54.0863 -8.6317 107° East 476 548 37,500 -2,571 Descending FlightAware UK
Mon 12:56:00 AM 54.0729 -8.5561 107° East 476 548 37,500 3,214 Level FlightAware UK
Mon 12:56:10 AM 54.0680 -8.5290 107° East 558 642 39,000  Climbing FlightAware ADS-B
Mon 12:56:30 AM 54.0503 -8.4298 107° East 476 548 37,500 -2,368 Descending FlightAware UK
Mon 12:56:48 AM 54.0368 -8.3547 107° East 478 550 37,500 4,500 Level FlightAware UK
Mon 12:56:50 AM 54.0370 -8.3580 107° East 558 642 39,000  Climbing FlightAware ADS-B
Mon 12:57:06 AM 54.0233 -8.2796 107° East 478 550 37,500 -2,647 Descending FlightAware UK
Mon 12:57:24 AM 54.0095 -8.2044 107° East 478 550 37,500 3,103 Level FlightAware UK
Mon 12:57:35 AM 54.0030 -8.1690 107° East 557 641 39,000  Climbing FlightAware ADS-B
Mon 12:57:54 AM 53.9869 -8.0788 107° East 474 545 37,500 -2,432 Descending FlightAware UK
Mon 12:58:12 AM 53.9732 -8.0037 107° East 474 545 37,500 4,286 Level FlightAware UK
Mon 12:58:15 AM 53.9720 -7.9990 107° East 556 640 39,000  Climbing FlightAware ADS-B
Mon 12:58:30 AM 53.9593 -7.9289 107° East 474 545 37,500 -2,727 Descending FlightAware UK
Mon 12:58:48 AM 53.9454 -7.8542 108° East 474 545 37,500 3,600 Level FlightAware UK
Mon 12:58:55 AM 53.9420 -7.8410 108° East 554 638 39,000  Climbing FlightAware ADS-B
Mon 12:59:12 AM 53.9267 -7.7548 108° East 476 548 37,500 -2,195 Descending FlightAware UK
Mon 12:59:36 AM 53.9082 -7.6554 108° East 474 545 37,500 3,214 Level FlightAware UK
Mon 12:59:40 AM 53.9070 -7.6500 108° East 553 636 39,000  Climbing FlightAware ADS-B
Mon 01:00:00 AM 53.8896 -7.5560 108° East 472 543 37,500 -2,368 Descending FlightAware UK
Mon 01:00:18 AM 53.8756 -7.4814 108° East 474 545 37,500 4,500 Level FlightAware UK
Mon 01:00:20 AM 53.8770 -7.4930 108° East 553 636 39,000  Climbing FlightAware ADS-B
Mon 01:00:36 AM 53.8614 -7.4070 108° East 474 545 37,500 -2,250 Descending FlightAware UK
Mon 01:01:00 AM 53.8425 -7.3079 108° East 474 545 37,500 3,103 Level FlightAware UK
Mon 01:01:05 AM 53.8400 -7.2990 108° East 552 635 39,000  Climbing FlightAware ADS-B
Mon 01:01:24 AM 53.8233 -7.2081 108° East 474 545 37,500  Descending FlightAware UK
Mon 01:01:35 AM 53.8160 -7.1760 108° East 548 631 39,000  Climbing FlightAware ADS-B
Mon 01:01:42 AM 53.8091 -7.1342 108° East 470 541 37,500 -3,600 Descending FlightAware UK
Mon 01:02:00 AM 53.7948 -7.0608 108° East 466 536 37,500  Level FlightAware UK
Mon 01:02:18 AM 53.7811 -6.9889 108° East 466 536 37,500 3,600 Level FlightAware UK
Mon 01:02:25 AM 53.7780 -6.9770 108° East 542 624 39,000  Climbing FlightAware ADS-B
Mon 01:02:42 AM 53.7623 -6.8921 108° East 466 536 37,500 -2,571 Descending FlightAware UK
Mon 01:03:00 AM 53.7482 -6.8198 108° East 468 539 37,500 3,214 Level FlightAware UK
Mon 01:03:10 AM 53.7420 -6.7920 108° East 540 621 39,000  Climbing FlightAware ADS-B
Mon 01:03:30 AM 53.7244 -6.6993 108° East 470 541 37,500 -2,368 Descending FlightAware UK
Mon 01:03:48 AM 53.7101 -6.6272 108° East 468 539 37,500 4,500 Level FlightAware UK
Mon 01:03:50 AM 53.7100 -6.6310 108° East 537 618 39,000  Climbing FlightAware ADS-B
Mon 01:04:06 AM 53.6960 -6.5555 108° East 466 536 37,500 -2,250 Descending FlightAware UK
Mon 01:04:30 AM 53.6769 -6.4595 108° East 464 534 37,500 3,103 Level FlightAware UK
Mon 01:04:35 AM 53.6750 -6.4530 108° East 534 615 39,000  Climbing FlightAware ADS-B
Mon 01:04:54 AM 53.6582 -6.3653 108° East 468 539 37,500 -2,432 Descending FlightAware UK
Mon 01:05:12 AM 53.6436 -6.2937 109° East 462 532 37,500 4,286 Level FlightAware UK
Mon 01:05:15 AM 53.6430 -6.2950 109° East 531 611 39,000  Climbing FlightAware ADS-B
Mon 01:05:30 AM 53.6293 -6.2232 109° East 464 534 37,500 -2,727 Descending FlightAware UK
Mon 01:05:48 AM 53.6150 -6.1527 109° East 466 536 37,500 3,000 Level FlightAware UK
Mon 01:06:00 AM 53.6070 -6.1190 109° East 529 609 39,000  Climbing FlightAware ADS-B
Mon 01:06:18 AM 53.5912 -6.0355 109° East 466 536 37,500  Descending FlightAware UK
Mon 01:06:35 AM 53.5830 -6.0020 109° East 525 604 39,000  Climbing FlightAware ADS-B
Mon 01:06:36 AM 53.5769 -5.9656 109° East 472 543 37,500 -4,737 Descending FlightAware UK
Mon 01:06:54 AM 53.5627 -5.8959 109° East 468 539 37,500  Level FlightAware UK
Mon 01:07:12 AM 53.5485 -5.8276 109° East 462 532 37,500 3,462 Level FlightAware UK
Mon 01:07:20 AM 53.5440 -5.8090 109° East 521 600 39,000  Climbing FlightAware ADS-B
Mon 01:07:36 AM 53.5295 -5.7356 109° East 460 529 37,500 -2,647 Descending FlightAware UK
Mon 01:07:54 AM 53.5153 -5.6669 109° East 462 532 37,500 3,750 Level FlightAware UK
Mon 01:08:00 AM 53.5130 -5.6600 109° East 520 598 39,000  Climbing FlightAware ADS-B
Mon 01:08:18 AM 53.4961 -5.5750 109° East 460 529 37,500 -2,500 Descending FlightAware UK
Mon 01:08:36 AM 53.4857 -5.5051 104° East 460 529 37,500 3,333 Level FlightAware UK
Mon 01:08:45 AM 53.4830 -5.4820 104° East 512 589 39,000  Climbing FlightAware ADS-B
Mon 01:09:00 AM 53.4775 -5.4114 104° East 462 532 37,500 -2,727 Descending FlightAware UK
Mon 01:09:18 AM 53.4755 -5.3415 93° East 464 534 37,500 3,600 Level FlightAware UK
Mon 01:09:25 AM 53.4750 -5.3310 93° East 503 579 39,000  Climbing FlightAware ADS-B
Mon 01:09:42 AM 53.4727 -5.2484 93° East 460 529 37,500 -2,571 Descending FlightAware UK
Mon 01:10:00 AM 53.4708 -5.1777 93° East 460 529 37,500 3,214 Level FlightAware UK
Mon 01:10:10 AM 53.4700 -5.1520 93° East 501 577 39,000  Climbing FlightAware ADS-B
Mon 01:10:30 AM 53.4675 -5.0612 93° East 460 529 37,500 -2,368 Descending FlightAware UK
Mon 01:10:48 AM 53.4654 -4.9915 93° East 452 520 37,500 4,500 Level FlightAware UK
Mon 01:10:50 AM 53.4650 -4.9970 93° East 499 574 39,000  Climbing FlightAware ADS-B
Mon 01:11:06 AM 53.4633 -4.9219 93° East 452 520 37,500 -2,647 Descending FlightAware UK
Mon 01:11:24 AM 53.4612 -4.8523 93° East 456 525 37,500 3,103 Level FlightAware UK
Mon 01:11:35 AM 53.4600 -4.8190 93° East 503 579 39,000  Climbing FlightAware ADS-B
Mon 01:11:54 AM 53.4574 -4.7359 93° East 464 534 37,500 -2,432 Descending FlightAware UK
Mon 01:12:12 AM 53.4549 -4.6661 93° East 464 534 37,500 4,286 Level FlightAware UK
Mon 01:12:15 AM 53.4550 -4.6680 93° East 497 572 39,000  Climbing FlightAware ADS-B
Mon 01:12:31 AM 53.4523 -4.5961 93° East 464 534 37,500 -2,727 Descending FlightAware UK
Mon 01:12:48 AM 53.4499 -4.5289 93° East 458 527 37,500 3,103 Level FlightAware UK
Mon 01:13:00 AM 53.4480 -4.4960 93° East 491 565 39,000  Climbing FlightAware ADS-B
Mon 01:13:18 AM 53.4457 -4.4151 93° East 452 520 37,500  Descending FlightAware UK
Mon 01:13:23 AM 53.4450 -4.4014 93° East 492 566 39,000  Climbing FlightAware ADS-B
Mon 01:13:42 AM 53.4424 -4.3241 93° East 458 527 37,500 -2,368 Descending FlightAware UK
Mon 01:14:01 AM 53.4398 -4.2553 94° East 452 520 37,500 3,333 Level FlightAware UK
Mon 01:14:09 AM 53.4386 -4.2272 94° East 488 562 39,000  Climbing FlightAware ADS-B
Mon 01:14:25 AM 53.4365 -4.1648 94° East 448 516 37,500 -387 Descending FlightAware UK
Mon 01:14:40 AM 53.4340 -4.1112 94° East 483 556 38,800 -1,000 Climbing FlightAware ADS-B
Mon 01:14:55 AM 53.4319 -4.0534 94° East 438 504 37,000 -4,182 Descending FlightAware UK
Mon 01:15:13 AM 53.4293 -3.9868 94° East 432 497 36,500 2,308 Descending FlightAware UK
Mon 01:15:21 AM 53.4282 -3.9591 94° East 481 554 38,000  Climbing FlightAware ADS-B
Mon 01:15:37 AM 53.4258 -3.8968 94° East 434 499 36,500  Descending FlightAware UK
Mon 01:15:51 AM 53.4237 -3.8470 94° East 486 559 38,000  Climbing FlightAware ADS-B
Mon 01:16:07 AM 53.4213 -3.7849 94° East 434 499 36,500  Descending FlightAware UK
Mon 01:16:20 AM 53.4185 -3.7382 94° East 491 565 38,000 3,462 Climbing FlightAware ADS-B
Mon 01:16:33 AM 53.4125 -3.6890 102° East 504 580 38,000  Level FlightAware ADS-B
Mon 01:16:42 AM 53.4059 -3.6512 106° East 512 589 38,000  Level FlightAware ADS-B
Mon 01:16:55 AM 53.3935 -3.6034 113° Southeast 520 598 38,000 -2,903 Level FlightAware ADS-B
Mon 01:17:13 AM 53.3735 -3.5403 113° Southeast 436 502 36,500  Descending FlightAware UK
Mon 01:17:27 AM 53.3573 -3.4933 113° Southeast 525 604 38,000  Climbing FlightAware ADS-B
Mon 01:17:43 AM 53.3385 -3.4337 113° Southeast 438 504 36,500  Descending FlightAware UK
Mon 01:18:02 AM 53.3160 -3.3650 113° Southeast 526 605 38,000  Climbing FlightAware ADS-B
Mon 01:18:19 AM 53.2965 -3.3048 113° Southeast 440 506 36,500  Descending FlightAware UK
Mon 01:18:27 AM 53.2875 -3.2796 113° Southeast 528 608 38,000  Climbing FlightAware ADS-B
Mon 01:18:43 AM 53.2653 -3.2228 113° Southeast 440 506 36,500  Descending FlightAware UK
Mon 01:18:58 AM 53.2436 -3.1756 113° Southeast 533 613 38,000  Climbing FlightAware ADS-B
Mon 01:19:13 AM 53.2210 -3.1239 113° Southeast 438 504 36,500  Descending FlightAware UK
Mon 01:19:28 AM 53.1977 -3.0744 113° Southeast 533 613 38,000  Climbing FlightAware ADS-B
Mon 01:19:43 AM 53.1758 -3.0254 113° Southeast 442 509 36,500  Descending FlightAware UK
Mon 01:19:59 AM 53.1513 -2.9739 113° Southeast 533 613 38,000  Climbing FlightAware ADS-B
Mon 01:20:19 AM 53.1213 -2.9092 113° Southeast 442 509 36,500  Descending FlightAware UK
Mon 01:20:31 AM 53.1033 -2.8740 113° Southeast 531 611 38,000  Climbing FlightAware ADS-B
Mon 01:20:49 AM 53.0753 -2.8126 113° Southeast 442 509 36,500  Descending FlightAware UK
Mon 01:21:02 AM 53.0561 -2.7749 113° Southeast 530 610 38,000 -200 Climbing FlightAware ADS-B
Mon 01:21:19 AM 53.0298 -2.7170 113° Southeast 444 511 36,400 -3,429 Descending FlightAware UK
Mon 01:21:37 AM 52.9990 -2.6636 134° Southeast 448 516 36,000 2,727 Descending FlightAware UK
Mon 01:21:41 AM 52.9925 -2.6559 134° Southeast 544 626 37,400 889 Climbing FlightAware ADS-B
Mon 01:22:04 AM 52.9459 -2.5988 144° Southeast 548 631 36,400 -5,684 Descending FlightAware ADS-B
Mon 01:22:19 AM 52.9125 -2.5617 144° Southeast 462 532 33,800 -4,182 Descending FlightAware UK
Mon 01:22:37 AM 52.8730 -2.5199 144° Southeast 561 646 34,100 -2,833 Climbing FlightAware ADS-B
Mon 01:22:55 AM 52.8339 -2.4783 144° Southeast 464 534 32,100 -1,050 Descending FlightAware UK
Mon 01:23:17 AM 52.7881 -2.4312 144° Southeast 542 624 33,400 1,038 Climbing FlightAware ADS-B
Mon 01:23:47 AM 52.7252 -2.3664 148° Southeast 520 598 33,000 -2,760 Descending FlightAware ADS-B
Mon 01:24:07 AM 52.6847 -2.3223 148° Southeast 418 481 31,100 -968 Descending FlightAware UK
Mon 01:24:18 AM 52.6634 -2.3011 148° Southeast 500 575 32,500 1,412 Climbing FlightAware ADS-B
Mon 01:24:41 AM 52.6202 -2.2575 148° Southeast 488 562 31,900 -4,186 Descending FlightAware ADS-B
Mon 01:25:01 AM 52.5836 -2.2107 148° Southeast 392 451 29,500 -2,545 Descending FlightAware UK
Mon 01:25:14 AM 52.5617 -2.1816 148° Southeast 472 543 30,500 -2,600 Climbing FlightAware ADS-B
Mon 01:25:31 AM 52.5327 -2.1421 148° Southeast 384 442 28,200 -2,571 Descending FlightAware UK
Mon 01:25:49 AM 52.5045 -2.1051 148° Southeast 463 533 29,000 -2,500 Climbing FlightAware ADS-B
Mon 01:26:07 AM 52.4732 -2.0622 148° Southeast 372 428 26,700 -2,600 Descending FlightAware UK
Mon 01:26:19 AM 52.4546 -2.0391 148° Southeast 456 525 27,700 -2,600 Climbing FlightAware ADS-B
Mon 01:26:37 AM 52.4247 -1.9967 148° Southeast 368 423 25,400 -2,516 Descending FlightAware UK
Mon 01:26:50 AM 52.4057 -1.9713 148° Southeast 447 514 26,400 -2,400 Climbing FlightAware ADS-B
Mon 01:27:07 AM 52.3770 -1.9321 148° Southeast 368 423 24,200 -2,200 Descending FlightAware UK
Mon 01:27:20 AM 52.3573 -1.9083 148° Southeast 435 501 25,300 -1,935 Climbing FlightAware ADS-B
Mon 01:27:38 AM 52.3301 -1.8705 148° Southeast 366 421 23,200 -1,800 Descending FlightAware UK
Mon 01:27:50 AM 52.3112 -1.8463 148° Southeast 417 480 24,400 -2,000 Climbing FlightAware ADS-B
Mon 01:28:08 AM 52.2851 -1.8120 148° Southeast 356 410 22,200 -2,250 Descending FlightAware UK
Mon 01:28:22 AM 52.2647 -1.7858 148° Southeast 403 464 23,200 -2,333 Climbing FlightAware ADS-B
Mon 01:28:44 AM 52.2337 -1.7423 148° Southeast 340 391 20,800 -2,323 Descending FlightAware UK
Mon 01:28:53 AM 52.2211 -1.7262 148° Southeast 395 455 22,000 -2,000 Climbing FlightAware ADS-B
Mon 01:29:08 AM 52.2003 -1.6965 148° Southeast 338 389 20,000 -2,129 Descending FlightAware UK
Mon 01:29:24 AM 52.1790 -1.6673 148° Southeast 384 442 20,900 -2,333 Climbing FlightAware ADS-B
Mon 01:29:44 AM 52.1523 -1.6284 148° Southeast 326 375 18,600 -2,000 Descending FlightAware UK
Mon 01:29:54 AM 52.1394 -1.6106 148° Southeast 377 434 19,900 -1,400 Climbing FlightAware ADS-B
Mon 01:30:14 AM 52.1128 -1.5715 148° Southeast 328 377 17,900 -1,200 Descending FlightAware UK
Mon 01:30:24 AM 52.0991 -1.5520 148° Southeast 380 437 19,300 -1,400 Climbing FlightAware ADS-B
Mon 01:30:44 AM 52.0735 -1.5149 148° Southeast 328 377 17,200 -1,742 Descending FlightAware UK
Mon 01:30:55 AM 52.0591 -1.4951 148° Southeast 383 441 18,400 -1,600 Climbing FlightAware ADS-B
Mon 01:31:14 AM 52.0332 -1.4578 148° Southeast 340 391 16,400 -1,600 Descending FlightAware UK
Mon 01:31:25 AM 52.0187 -1.4387 148° Southeast 379 436 17,600 -1,600 Climbing FlightAware ADS-B
Mon 01:31:44 AM 51.9935 -1.4021 148° Southeast 346 398 15,600 -1,600 Descending FlightAware UK
Mon 01:31:55 AM 51.9788 -1.3833 148° Southeast 375 432 16,800 -1,200 Climbing FlightAware ADS-B
Mon 01:32:14 AM 51.9544 -1.3470 148° Southeast 336 387 15,000 -800 Descending FlightAware UK
Mon 01:32:25 AM 51.9403 -1.3288 148° Southeast 360 414 16,400 -500 Climbing FlightAware ADS-B
Mon 01:32:50 AM 51.9098 -1.2832 148° Southeast 316 364 14,700 -581 Descending FlightAware UK
Mon 01:32:56 AM 51.9031 -1.2746 148° Southeast 339 390 16,100 -750 Climbing FlightAware ADS-B
Mon 01:33:14 AM 51.8824 -1.2430 148° Southeast 302 348 14,400 -581 Descending FlightAware UK
Mon 01:33:27 AM 51.8682 -1.2232 148° Southeast 323 372 15,800 -600 Climbing FlightAware ADS-B
Mon 01:33:44 AM 51.8498 -1.1946 148° Southeast 286 329 14,100 -774 Descending FlightAware UK
Mon 01:33:58 AM 51.8356 -1.1739 148° Southeast 309 356 15,400 -1,000 Climbing FlightAware ADS-B
Mon 01:34:14 AM 51.8184 -1.1477 148° Southeast 280 322 13,600 -1,400 Descending FlightAware UK
Mon 01:34:28 AM 51.8044 -1.1274 148° Southeast 302 348 14,700 -1,600 Climbing FlightAware ADS-B
Mon 01:34:44 AM 51.7876 -1.1019 148° Southeast 278 320 12,800 -1,500 Descending FlightAware UK
Mon 01:35:00 AM 51.7730 -1.0778 148° Southeast 295 339 13,900 2,455 Climbing FlightAware ADS-B
Mon 01:35:06 AM 51.7684 -1.0668 124° Southeast 293 337 13,700 -1,600 Descending FlightAware ADS-B
Mon 01:35:15 AM 51.7628 -1.0495 118° Southeast 292 336 13,500 -1,200 Descending FlightAware ADS-B
Mon 01:35:21 AM 51.7598 -1.0375 112° Southeast 289 333 13,400 -1,500 Descending FlightAware ADS-B
Mon 01:35:27 AM 51.7575 -1.0229 104° East 288 331 13,200 -5,217 Descending FlightAware ADS-B
Mon 01:35:44 AM 51.7548 -0.9868 104° East 268 308 11,400 -387 Descending FlightAware UK
Mon 01:35:58 AM 51.7521 -0.9592 104° East 290 334 13,000  Climbing FlightAware ADS-B
Mon 01:36:14 AM 51.7497 -0.9226 104° East 272 313 11,400  Descending FlightAware UK
Mon 01:36:24 AM 51.7487 -0.9009 104° East 290 334 13,000 200 Climbing FlightAware ADS-B
Mon 01:36:44 AM 51.7460 -0.8580 104° East 270 311 11,500  Descending FlightAware UK
Mon 01:36:55 AM 51.7449 -0.8365 104° East 288 331 13,000  Climbing FlightAware ADS-B
Mon 01:37:14 AM 51.7424 -0.7940 104° East 270 311 11,500  Descending FlightAware UK
Mon 01:37:25 AM 51.7408 -0.7701 104° East 289 333 13,000  Climbing FlightAware ADS-B
Mon 01:37:44 AM 51.7383 -0.7292 104° East 270 311 11,500  Descending FlightAware UK
Mon 01:37:56 AM 51.7365 -0.7035 104° East 290 334 13,000  Climbing FlightAware ADS-B
Mon 01:38:14 AM 51.7340 -0.6648 104° East 270 311 11,500  Descending FlightAware UK
Mon 01:38:26 AM 51.7322 -0.6391 104° East 289 333 13,000 2,093 Climbing FlightAware ADS-B
Mon 01:38:57 AM 51.7280 -0.5751 96° East 290 334 13,000  Level FlightAware ADS-B
Mon 01:39:16 AM 51.7252 -0.5344 96° East 290 334 13,000  Level FlightAware ADS-B
Mon 01:39:21 AM 51.7239 -0.5234 101° East 292 336 13,000  Level FlightAware ADS-B
Mon 01:39:28 AM 51.7203 -0.5092 112° Southeast 295 339 13,000  Level FlightAware ADS-B
Mon 01:39:31 AM 51.7179 -0.5018 118° Southeast 296 341 13,000  Level FlightAware ADS-B
Mon 01:39:36 AM 51.7138 -0.4950 134° Southeast 296 341 13,000  Level FlightAware ADS-B
Mon 01:39:39 AM 51.7099 -0.4893 138° Southeast 297 342 13,000  Level FlightAware ADS-B
Mon 01:39:44 AM 51.7050 -0.4846 149° Southeast 295 339 13,000  Level FlightAware ADS-B
Mon 01:39:48 AM 51.7001 -0.4811 156° South 294 338 13,000  Level FlightAware ADS-B
Mon 01:39:53 AM 51.6928 -0.4784 167° South 291 335 13,000  Level FlightAware ADS-B
Mon 01:39:58 AM 51.6869 -0.4777 175° South 288 331 13,000  Level FlightAware ADS-B
Mon 01:40:02 AM 51.6815 -0.4784 185° South 285 328 13,000  Level FlightAware ADS-B
Mon 01:40:06 AM 51.6765 -0.4805 194° South 282 325 13,000  Level FlightAware ADS-B
Mon 01:40:11 AM 51.6699 -0.4841 199° South 278 320 13,000  Level FlightAware ADS-B
Mon 01:40:23 AM 51.6571 -0.4963 211° Southwest 271 312 13,000  Level FlightAware ADS-B
Mon 01:40:29 AM 51.6514 -0.5039 219° Southwest 269 310 13,000  Level FlightAware ADS-B
Mon 01:40:34 AM 51.6472 -0.5109 226° Southwest 265 305 13,000  Level FlightAware ADS-B
Mon 01:40:38 AM 51.6441 -0.5172 231° Southwest 263 303 13,000  Level FlightAware ADS-B
Mon 01:40:42 AM 51.6415 -0.5236 237° Southwest 261 300 13,000  Level FlightAware ADS-B
Mon 01:40:48 AM 51.6379 -0.5356 244° Southwest 256 295 13,000  Level FlightAware ADS-B
Mon 01:40:54 AM 51.6360 -0.5445 251° West 251 289 13,000  Level FlightAware ADS-B
Mon 01:40:58 AM 51.6350 -0.5518 257° West 249 287 13,000  Level FlightAware ADS-B
Mon 01:41:01 AM 51.6346 -0.5573 263° West 247 284 13,000  Level FlightAware ADS-B
Mon 01:41:08 AM 51.6346 -0.5718 270° West 243 280 13,000  Level FlightAware ADS-B
Mon 01:41:16 AM 51.6362 -0.5840 282° West 240 276 13,000  Level FlightAware ADS-B
Mon 01:41:20 AM 51.6375 -0.5909 287° West 238 274 13,000  Level FlightAware ADS-B
Mon 01:41:24 AM 51.6395 -0.5990 292° West 238 274 13,000 -3,750 Level FlightAware ADS-B
Mon 01:41:44 AM 51.6493 -0.6304 292° West 270 311 11,500  Descending FlightAware UK
Mon 01:41:55 AM 51.6546 -0.6466 292° West 240 276 13,000 2,571 Climbing FlightAware ADS-B
Mon 01:42:19 AM 51.6666 -0.6852 297° West 241 277 13,000  Level FlightAware ADS-B
Mon 01:42:40 AM 51.6769 -0.7186 296° West 238 274 13,000  Level FlightAware ADS-B
Mon 01:42:44 AM 51.6793 -0.7247 302° West 237 273 13,000  Level FlightAware ADS-B
Mon 01:42:49 AM 51.6825 -0.7318 306° West 236 272 13,000  Level FlightAware ADS-B
Mon 01:42:52 AM 51.6851 -0.7357 317° Northwest 236 272 13,000  Level FlightAware ADS-B
Mon 01:42:57 AM 51.6890 -0.7417 317° Northwest 237 273 13,000  Level FlightAware ADS-B
Mon 01:43:01 AM 51.6926 -0.7459 324° Northwest 237 273 13,000  Level FlightAware ADS-B
Mon 01:43:06 AM 51.6977 -0.7512 327° Northwest 238 274 13,000  Level FlightAware ADS-B
Mon 01:43:11 AM 51.7028 -0.7546 338° Northwest 239 275 13,000  Level FlightAware ADS-B
Mon 01:43:20 AM 51.7120 -0.7579 348° North 242 278 13,000  Level FlightAware ADS-B
Mon 01:43:23 AM 51.7160 -0.7586 354° North 243 280 13,000  Level FlightAware ADS-B
Mon 01:43:28 AM 51.7217 -0.7583 North 245 282 13,000  Level FlightAware ADS-B
Mon 01:43:36 AM 51.7297 -0.7561 10° North 249 287 13,000  Level FlightAware ADS-B
Mon 01:43:47 AM 51.7421 -0.7477 23° Northeast 255 293 13,000  Level FlightAware ADS-B
Mon 01:43:54 AM 51.7490 -0.7396 36° Northeast 262 302 13,000  Level FlightAware ADS-B
Mon 01:44:00 AM 51.7538 -0.7310 48° Northeast 266 306 13,000 -600 Level FlightAware ADS-B
Mon 01:44:04 AM 51.7565 -0.7244 56° Northeast 268 308 12,900 -1,200 Descending FlightAware ADS-B
Mon 01:44:10 AM 51.7597 -0.7138 64° Northeast 272 313 12,800 -600 Descending FlightAware ADS-B
Mon 01:44:14 AM 51.7615 -0.7060 70° East 275 316 12,800 -1,000 Level FlightAware ADS-B
Mon 01:44:22 AM 51.7632 -0.6898 80° East 281 323 12,600 -1,600 Descending FlightAware ADS-B
Mon 01:44:29 AM 51.7625 -0.6729 94° East 286 329 12,400 -1,636 Descending FlightAware ADS-B
Mon 01:44:33 AM 51.7614 -0.6666 106° East 288 331 12,300 -1,333 Descending FlightAware ADS-B
Mon 01:44:38 AM 51.7594 -0.6564 108° East 290 334 12,200 -5,217 Descending FlightAware ADS-B
Mon 01:44:56 AM 51.7482 -0.6193 108° East 264 304 10,300 -1,071 Descending FlightAware UK
Mon 01:45:06 AM 51.7425 -0.6022 108° East 289 333 11,700 -1,000 Climbing FlightAware ADS-B
Mon 01:45:26 AM 51.7298 -0.5616 108° East 268 308 9,800 -1,034 Descending FlightAware UK
Mon 01:45:35 AM 51.7246 -0.5455 108° East 281 323 11,200 4,875 Climbing FlightAware ADS-B
Mon 01:45:42 AM 51.7207 -0.5344 120° Southeast 279 321 11,100 -545 Descending FlightAware ADS-B
Mon 01:45:46 AM 51.7179 -0.5273 122° Southeast 279 321 11,100 -750 Level FlightAware ADS-B
Mon 01:45:50 AM 51.7147 -0.5206 127° Southeast 278 320 11,000 -1,714 Descending FlightAware ADS-B
Mon 01:45:53 AM 51.7117 -0.5147 129° Southeast 277 319 10,900 -1,333 Descending FlightAware ADS-B
Mon 01:45:59 AM 51.7063 -0.5086 145° Southeast 276 318 10,800 -1,500 Descending FlightAware ADS-B
Mon 01:46:05 AM 51.6992 -0.5034 155° Southeast 274 315 10,600 -1,200 Descending FlightAware ADS-B
Mon 01:46:09 AM 51.6941 -0.5011 164° South 272 313 10,600 -1,200 Level FlightAware ADS-B
Mon 01:46:15 AM 51.6866 -0.4994 172° South 269 310 10,400 -1,333 Descending FlightAware ADS-B
Mon 01:46:18 AM 51.6829 -0.4995 181° South 267 307 10,400 -857 Level FlightAware ADS-B
Mon 01:46:22 AM 51.6782 -0.5003 186° South 265 305 10,300 -1,500 Descending FlightAware ADS-B
Mon 01:46:26 AM 51.6735 -0.5022 194° South 263 303 10,200 -1,714 Descending FlightAware ADS-B
Mon 01:46:29 AM 51.6699 -0.5043 200° South 261 300 10,100 -857 Descending FlightAware ADS-B
Mon 01:46:33 AM 51.6658 -0.5077 207° Southwest 257 296 10,100 -500 Level FlightAware ADS-B
Mon 01:46:41 AM 51.6584 -0.5169 218° Southwest 251 289 10,000 -500 Descending FlightAware ADS-B
Mon 01:46:45 AM 51.6552 -0.5222 226° Southwest 249 287 10,000  Level FlightAware ADS-B
Mon 01:46:48 AM 51.6532 -0.5267 234° Southwest 248 285 10,000 -857 Level FlightAware ADS-B
Mon 01:46:52 AM 51.6509 -0.5328 239° Southwest 245 282 9,900 -750 Descending FlightAware ADS-B
Mon 01:46:56 AM 51.6491 -0.5394 246° West 243 280 9,900 -667 Level FlightAware ADS-B
Mon 01:47:01 AM 51.6475 -0.5480 253° West 241 277 9,800 -1,500 Descending FlightAware ADS-B
Mon 01:47:04 AM 51.6467 -0.5533 256° West 240 276 9,700 -750 Descending FlightAware ADS-B
Mon 01:47:09 AM 51.6464 -0.5620 267° West 238 274 9,700 -750 Level FlightAware ADS-B
Mon 01:47:12 AM 51.6465 -0.5674 272° West 237 273 9,600 -1,500 Descending FlightAware ADS-B
Mon 01:47:17 AM 51.6475 -0.5778 279° West 236 272 9,500 -1,333 Descending FlightAware ADS-B
Mon 01:47:21 AM 51.6486 -0.5829 289° West 236 272 9,400 -1,500 Descending FlightAware ADS-B
Mon 01:47:25 AM 51.6501 -0.5893 291° West 236 272 9,300 -1,500 Descending FlightAware ADS-B
Mon 01:47:29 AM 51.6523 -0.5957 299° West 236 272 9,200 -900 Descending FlightAware ADS-B
Mon 01:47:45 AM 51.6602 -0.6207 297° West 234 269 9,000 -429 Descending FlightAware ADS-B
Mon 01:47:57 AM 51.6662 -0.6409 296° West 233 268 9,000  Level FlightAware ADS-B
Mon 01:48:10 AM 51.6726 -0.6610 297° West 233 268 9,000  Level FlightAware ADS-B
Mon 01:48:26 AM 51.6802 -0.6843 298° West 234 269 9,000  Level FlightAware ADS-B
Mon 01:48:36 AM 51.6850 -0.6998 297° West 232 267 9,000  Level FlightAware ADS-B
Mon 01:48:39 AM 51.6866 -0.7043 300° West 232 267 9,000  Level FlightAware ADS-B
Mon 01:48:43 AM 51.6892 -0.7101 306° West 232 267 9,000  Level FlightAware ADS-B
Mon 01:48:47 AM 51.6917 -0.7155 307° West 232 267 9,000  Level FlightAware ADS-B
Mon 01:48:50 AM 51.6941 -0.7192 316° Northwest 233 268 9,000  Level FlightAware ADS-B
Mon 01:48:54 AM 51.6979 -0.7247 318° Northwest 233 268 9,000  Level FlightAware ADS-B
Mon 01:48:58 AM 51.7008 -0.7276 328° Northwest 234 269 9,000  Level FlightAware ADS-B
Mon 01:49:02 AM 51.7054 -0.7317 331° Northwest 236 272 9,000  Level FlightAware ADS-B
Mon 01:49:05 AM 51.7085 -0.7336 340° North 237 273 9,000  Level FlightAware ADS-B
Mon 01:49:10 AM 51.7140 -0.7359 346° North 239 275 9,000  Level FlightAware ADS-B
Mon 01:49:14 AM 51.7173 -0.7366 352° North 242 278 9,000  Level FlightAware ADS-B
Mon 01:49:17 AM 51.7217 -0.7369 358° North 243 280 9,000  Level FlightAware ADS-B
Mon 01:49:21 AM 51.7258 -0.7366 North 245 282 9,000  Level FlightAware ADS-B
Mon 01:49:24 AM 51.7294 -0.7358 North 247 284 9,000  Level FlightAware ADS-B
Mon 01:49:29 AM 51.7342 -0.7333 17° North 249 287 9,000  Level FlightAware ADS-B
Mon 01:49:32 AM 51.7384 -0.7304 23° Northeast 251 289 9,000  Level FlightAware ADS-B
Mon 01:49:35 AM 51.7414 -0.7278 29° Northeast 252 290 9,000  Level FlightAware ADS-B
Mon 01:49:38 AM 51.7444 -0.7246 33° Northeast 253 291 9,000  Level FlightAware ADS-B
Mon 01:49:45 AM 51.7496 -0.7170 42° Northeast 255 293 9,000  Level FlightAware ADS-B
Mon 01:49:52 AM 51.7549 -0.7065 51° Northeast 258 297 9,000  Level FlightAware ADS-B
Mon 01:49:57 AM 51.7575 -0.6976 65° Northeast 260 299 9,000  Level FlightAware ADS-B
Mon 01:50:01 AM 51.7591 -0.6903 71° East 263 303 9,000  Level FlightAware ADS-B
Mon 01:50:05 AM 51.7599 -0.6826 80° East 265 305 9,000  Level FlightAware ADS-B
Mon 01:50:09 AM 51.7602 -0.6747 87° East 265 305 9,000  Level FlightAware ADS-B
Mon 01:50:14 AM 51.7598 -0.6648 94° East 266 306 9,000  Level FlightAware ADS-B
Mon 01:50:17 AM 51.7591 -0.6590 101° East 266 306 9,000  Level FlightAware ADS-B
Mon 01:50:22 AM 51.7573 -0.6496 107° East 265 305 9,000  Level FlightAware ADS-B
Mon 01:50:26 AM 51.7553 -0.6423 114° Southeast 263 303 9,000  Level FlightAware ADS-B
Mon 01:50:41 AM 51.7470 -0.6161 117° Southeast 261 300 9,000  Level FlightAware ADS-B
Mon 01:50:54 AM 51.7400 -0.5935 117° Southeast 264 304 9,000  Level FlightAware ADS-B
Mon 01:51:09 AM 51.7310 -0.5654 117° Southeast 265 305 9,000  Level FlightAware ADS-B
Mon 01:51:25 AM 51.7224 -0.5391 118° Southeast 263 303 9,000  Level FlightAware ADS-B
Mon 01:51:29 AM 51.7198 -0.5323 122° Southeast 262 302 9,000  Level FlightAware ADS-B
Mon 01:51:33 AM 51.7172 -0.5259 123° Southeast 261 300 9,000  Level FlightAware ADS-B
Mon 01:51:36 AM 51.7145 -0.5215 135° Southeast 260 299 9,000  Level FlightAware ADS-B
Mon 01:51:40 AM 51.7110 -0.5161 137° Southeast 259 298 9,000  Level FlightAware ADS-B
Mon 01:51:43 AM 51.7076 -0.5117 141° Southeast 258 297 9,000  Level FlightAware ADS-B
Mon 01:51:47 AM 51.7039 -0.5089 155° Southeast 257 296 9,000  Level FlightAware ADS-B
Mon 01:51:50 AM 51.7000 -0.5060 155° Southeast 256 295 9,000  Level FlightAware ADS-B
Mon 01:51:55 AM 51.6955 -0.5037 162° South 255 293 9,000  Level FlightAware ADS-B
Mon 01:52:06 AM 51.6819 -0.4985 167° South 254 292 9,000  Level FlightAware ADS-B
Mon 01:52:17 AM 51.6693 -0.4936 167° South 254 292 9,000  Level FlightAware ADS-B
Mon 01:52:33 AM 51.6517 -0.4864 166° South 255 293 9,000  Level FlightAware ADS-B
Mon 01:52:48 AM 51.6343 -0.4790 165° South 254 292 9,000 -600 Level FlightAware ADS-B
Mon 01:53:03 AM 51.6174 -0.4713 164° South 251 289 8,700 -1,000 Descending FlightAware ADS-B
Mon 01:53:18 AM 51.6011 -0.4636 164° South 250 288 8,500 -1,000 Descending FlightAware ADS-B
Mon 01:53:33 AM 51.5842 -0.4559 164° South 248 285 8,200 -1,200 Descending FlightAware ADS-B
Mon 01:53:48 AM 51.5678 -0.4483 164° South 246 283 7,900 -1,071 Descending FlightAware ADS-B
Mon 01:54:01 AM 51.5536 -0.4421 165° South 243 280 7,700 -1,059 Descending FlightAware ADS-B
Mon 01:54:05 AM 51.5495 -0.4398 161° South 243 280 7,600 -1,333 Descending FlightAware ADS-B
Mon 01:54:10 AM 51.5438 -0.4351 153° Southeast 245 282 7,500 -1,333 Descending FlightAware ADS-B
Mon 01:54:14 AM 51.5405 -0.4321 150° Southeast 247 284 7,400 -1,714 Descending FlightAware ADS-B
Mon 01:54:17 AM 51.5378 -0.4285 140° Southeast 248 285 7,300 -1,000 Descending FlightAware ADS-B
Mon 01:54:20 AM 51.5353 -0.4245 135° Southeast 249 287 7,300 -857 Level FlightAware ADS-B
Mon 01:54:24 AM 51.5330 -0.4187 123° Southeast 251 289 7,200 -1,500 Descending FlightAware ADS-B
Mon 01:54:28 AM 51.5308 -0.4121 118° Southeast 252 290 7,100 -857 Descending FlightAware ADS-B
Mon 01:54:31 AM 51.5294 -0.4069 113° Southeast 253 291 7,100 -1,000 Level FlightAware ADS-B
Mon 01:54:34 AM 51.5283 -0.4015 108° East 254 292 7,000 -857 Descending FlightAware ADS-B
Mon 01:54:38 AM 51.5277 -0.3941 97° East 254 292 7,000  Level FlightAware ADS-B
Mon 01:54:46 AM 51.5283 -0.3790 86° East 254 292 7,000  Level FlightAware ADS-B
Mon 01:54:49 AM 51.5292 -0.3735 75° East 255 293 7,000  Level FlightAware ADS-B
Mon 01:54:53 AM 51.5308 -0.3663 70° East 255 293 7,000  Level FlightAware ADS-B
Mon 01:55:03 AM 51.5357 -0.3492 65° Northeast 255 293 7,000  Level FlightAware ADS-B
Mon 01:55:18 AM 51.5440 -0.3241 62° Northeast 253 291 7,000 -400 Level FlightAware ADS-B
Mon 01:55:33 AM 51.5524 -0.2991 62° Northeast 253 291 6,800 -800 Descending FlightAware ADS-B
Mon 01:55:48 AM 51.5605 -0.2723 64° Northeast 251 289 6,600 -667 Descending FlightAware ADS-B
Mon 01:56:00 AM 51.5667 -0.2541 61° Northeast 249 287 6,500 -750 Descending FlightAware ADS-B
Mon 01:56:04 AM 51.5685 -0.2456 71° East 249 287 6,400 -923 Descending FlightAware ADS-B
Mon 01:56:13 AM 51.5706 -0.2312 77° East 249 287 6,300 -706 Descending FlightAware ADS-B
Mon 01:56:21 AM 51.5702 -0.2164 92° East 249 287 6,200 -400 Descending FlightAware ADS-B
Mon 01:56:28 AM 51.5687 -0.2037 101° East 248 285 6,200 -545 Level FlightAware ADS-B
Mon 01:56:43 AM 51.5651 -0.1769 102° East 247 284 6,000 -581 Descending FlightAware ADS-B
Mon 01:56:59 AM 51.5610 -0.1486 103° East 243 280 5,900 -632 Descending FlightAware ADS-B
Mon 01:57:02 AM 51.5596 -0.1434 113° Southeast 242 278 5,800 -1,000 Descending FlightAware ADS-B
Mon 01:57:05 AM 51.5579 -0.1371 113° Southeast 240 276 5,800 -600 Level FlightAware ADS-B
Mon 01:57:12 AM 51.5535 -0.1286 130° Southeast 233 268 5,700 -1,000 Descending FlightAware ADS-B
Mon 01:57:17 AM 51.5495 -0.1230 139° Southeast 228 262 5,600 -750 Descending FlightAware ADS-B
Mon 01:57:20 AM 51.5463 -0.1194 145° Southeast 225 259 5,600 -1,000 Level FlightAware ADS-B
Mon 01:57:23 AM 51.5435 -0.1175 157° South 221 254 5,500 -1,000 Descending FlightAware ADS-B
Mon 01:57:26 AM 51.5406 -0.1160 162° South 217 250 5,500 -857 Level FlightAware ADS-B
Mon 01:57:30 AM 51.5376 -0.1149 168° South 214 246 5,400 -667 Descending FlightAware ADS-B
Mon 01:57:35 AM 51.5318 -0.1136 172° South 210 242 5,400 -600 Level FlightAware ADS-B
Mon 01:57:40 AM 51.5270 -0.1129 175° South 208 239 5,300 -947 Descending FlightAware ADS-B
Mon 01:57:54 AM 51.5147 -0.1114 176° South 200 230 5,100 -1,000 Descending FlightAware ADS-B
Mon 01:58:04 AM 51.5055 -0.1102 176° South 195 224 4,900 -857 Descending FlightAware ADS-B
Mon 01:58:08 AM 51.5019 -0.1101 178° South 193 222 4,900 -857 Level FlightAware ADS-B
Mon 01:58:11 AM 51.4989 -0.1105 184° South 191 220 4,800 -1,000 Descending FlightAware ADS-B
Mon 01:58:14 AM 51.4963 -0.1112 191° South 190 219 4,800 -857 Level FlightAware ADS-B
Mon 01:58:18 AM 51.4934 -0.1131 201° Southwest 188 216 4,700 -1,200 Descending FlightAware ADS-B
Mon 01:58:24 AM 51.4891 -0.1174 212° Southwest 183 211 4,600 -1,091 Descending FlightAware ADS-B
Mon 01:58:29 AM 51.4863 -0.1223 228° Southwest 182 209 4,500 -1,333 Descending FlightAware ADS-B
Mon 01:58:33 AM 51.4842 -0.1269 233° Southwest 181 208 4,400 -857 Descending FlightAware ADS-B
Mon 01:58:36 AM 51.4830 -0.1316 248° West 181 208 4,400 -750 Level FlightAware ADS-B
Mon 01:58:41 AM 51.4818 -0.1367 249° West 181 208 4,300 -1,500 Descending FlightAware ADS-B
Mon 01:58:44 AM 51.4812 -0.1419 259° West 181 208 4,200 -1,286 Descending FlightAware ADS-B
Mon 01:58:55 AM 51.4789 -0.1548 254° West 181 208 4,000 -1,200 Descending FlightAware ADS-B
Mon 01:59:04 AM 51.4781 -0.1668 264° West 180 207 3,800 -1,385 Descending FlightAware ADS-B
Mon 01:59:21 AM 51.4782 -0.1891 270° West 177 204 3,400 -1,455 Descending FlightAware ADS-B
Mon 01:59:37 AM 51.4782 -0.2100 270° West 175 201 3,000 -1,313 Descending FlightAware ADS-B
Mon 01:59:53 AM 51.4781 -0.2307 270° West 174 200 2,700 -1,135 Descending FlightAware ADS-B
Mon 02:00:14 AM 51.4781 -0.2577 270° West 165 190 2,300 -3,450 Descending FlightAware ADS-B
Mon 02:00:33 AM 51.4780 -0.2795 270° West 166 191 400 -3,070 Descending FlightAware UK
Mon 02:00:57 AM 51.4780 -0.3065 270° West 164 189 100 1,784 Descending FlightAware UK
Mon 02:01:10 AM 51.4780 -0.3160 270° West 151 174 1,500 2,182 Climbing FlightAware ADS-B
Mon 02:01:30 AM 51.4780 -0.3300 270° West 149 171 1,300 -720 Descending FlightAware ADS-B
Mon 02:02:00 AM 51.4780 -0.3670 270° West 133 153 900 -873 Descending FlightAware ADS-B
Mon 02:02:25 AM 51.4780 -0.3950 270° West 137 158 500 -655 Descending FlightAware ADS-B
Mon 02:02:55 AM 51.4780 -0.4110 270° West 140 161 300 -218 Descending FlightAware ADS-B
Mon 02:03:20 AM 51.4780 -0.4350 270° West 140 161 300  Level FlightAware ADS-B
Mon 02:05:00 AM 51.4667 -0.4500 137° Southeast  Level FlightAware Approximate

Login

Don't have an account? Register now (free) for customized features, flight alerts, and more!